Map

Track Data

SID SEASON NUMBER BASIN SUBBASIN NAME ISO_TIME NATURE LAT LON WMO_WIND WMO_PRES WMO_AGENCY TRACK_TYPE DIST2LAND LANDFALL IFLAG USA_AGENCY USA_ATCF_ID USA_LAT USA_LON USA_RECORD USA_STATUS USA_WIND USA_PRES USA_SSHS USA_R34_NE USA_R34_SE USA_R34_SW USA_R34_NW USA_R50_NE USA_R50_SE USA_R50_SW USA_R50_NW USA_R64_NE USA_R64_SE USA_R64_SW USA_R64_NW USA_POCI USA_ROCI USA_RMW USA_EYE TOKYO_LAT TOKYO_LON TOKYO_GRADE TOKYO_WIND TOKYO_PRES TOKYO_R50_DIR TOKYO_R50_LONG TOKYO_R50_SHORT TOKYO_R30_DIR TOKYO_R30_LONG TOKYO_R30_SHORT TOKYO_LAND CMA_LAT CMA_LON CMA_CAT CMA_WIND CMA_PRES HKO_LAT HKO_LON HKO_CAT HKO_WIND HKO_PRES NEWDELHI_LAT NEWDELHI_LON NEWDELHI_GRADE NEWDELHI_WIND NEWDELHI_PRES NEWDELHI_CI NEWDELHI_DP NEWDELHI_POCI REUNION_LAT REUNION_LON REUNION_TYPE REUNION_WIND REUNION_PRES REUNION_TNUM REUNION_CI REUNION_RMW REUNION_R34_NE REUNION_R34_SE REUNION_R34_SW REUNION_R34_NW REUNION_R50_NE REUNION_R50_SE REUNION_R50_SW REUNION_R50_NW REUNION_R64_NE REUNION_R64_SE REUNION_R64_SW REUNION_R64_NW BOM_LAT BOM_LON BOM_TYPE BOM_WIND BOM_PRES BOM_TNUM BOM_CI BOM_RMW BOM_R34_NE BOM_R34_SE BOM_R34_SW BOM_R34_NW BOM_R50_NE BOM_R50_SE BOM_R50_SW BOM_R50_NW BOM_R64_NE BOM_R64_SE BOM_R64_SW BOM_R64_NW BOM_ROCI BOM_POCI BOM_EYE BOM_POS_METHOD BOM_PRES_METHOD NADI_LAT NADI_LON NADI_CAT NADI_WIND NADI_PRES WELLINGTON_LAT WELLINGTON_LON WELLINGTON_WIND WELLINGTON_PRES DS824_LAT DS824_LON DS824_STAGE DS824_WIND DS824_PRES TD9636_LAT TD9636_LON TD9636_STAGE TD9636_WIND TD9636_PRES TD9635_LAT TD9635_LON TD9635_WIND TD9635_PRES TD9635_ROCI NEUMANN_LAT NEUMANN_LON NEUMANN_CLASS NEUMANN_WIND NEUMANN_PRES MLC_LAT MLC_LON MLC_CLASS MLC_WIND MLC_PRES USA_GUST BOM_GUST BOM_GUST_PER REUNION_GUST REUNION_GUST_PER USA_SEAHGT USA_SEARAD_NE USA_SEARAD_SE USA_SEARAD_SW USA_SEARAD_NW STORM_SPEED STORM_DIR
1969029S26042 1969 8 SI MM EVE 1969-01-29 06:00:00 TS -25.8000 42.0000 reunion main 219 219 _____O______O_ -1 -25.8000 42.0000 2 9.90000 -25.8000 42.0000 TC 20 9 311
1969029S26042 1969 8 SI MM EVE 1969-01-29 09:00:00 TS -25.4977 41.6147 main 243 243 _____P______P_ -1 -25.4977 41.6147 2 -25.4977 41.6147 TC 22 9 310
1969029S26042 1969 8 SI MM EVE 1969-01-29 12:00:00 TS -25.2000 41.2000 reunion main 270 270 _____O______O_ -1 -25.2000 41.2000 99 9.90000 -25.2000 41.2000 TC 25 10 306
1969029S26042 1969 8 SI MM EVE 1969-01-29 15:00:00 TS -24.9198 40.7300 main 314 314 _____P______P_ -1 -24.9198 40.7300 99 -24.9198 40.7300 TC 27 10 299
1969029S26042 1969 8 SI MM EVE 1969-01-29 18:00:00 TS -24.7000 40.2000 reunion main 360 360 _____O______O_ -1 -24.7000 40.2000 99 9.90000 -24.7000 40.2000 TC 30 11 291
1969029S26042 1969 8 SI MM EVE 1969-01-29 21:00:00 TS -24.5103 39.5845 main 415 357 _____P______P_ -1 -24.5103 39.5845 99 -24.5103 39.5845 TC 30 11 280
1969029S26042 1969 8 SI MM EVE 1969-01-30 00:00:00 TS -24.5000 39.0000 reunion main 357 320 _____O______O_ -1 -24.5000 39.0000 99 9.90000 -24.5000 39.0000 TC 30 10 254
1969029S26042 1969 8 SI MM EVE 1969-01-30 03:00:00 TS -24.7898 38.5333 main 313 294 _____P______P_ -1 -24.7898 38.5333 99 -24.7898 38.5333 TC 30 10 226
1969029S26042 1969 8 SI MM EVE 1969-01-30 06:00:00 TS -25.2000 38.2000 reunion main 299 291 _____O______O_ -1 -25.2000 38.2000 2 9.90000 -25.2000 38.2000 TC 30 8 215
1969029S26042 1969 8 SI MM EVE 1969-01-30 09:00:00 TS -25.4848 38.0046 main 296 294 _____P______P_ -1 -25.4848 38.0046 2 -25.4848 38.0046 TC 30 7 204
1969029S26042 1969 8 SI MM EVE 1969-01-30 12:00:00 TS -25.8000 37.9000 reunion main 307 307 _____O______O_ -1 -25.8000 37.9000 99 9.90000 -25.8000 37.9000 TC 30 8 192
1969029S26042 1969 8 SI MM EVE 1969-01-30 15:00:00 TS -26.2949 37.8150 main 330 330 _____P______P_ -1 -26.2949 37.8150 99 -26.2949 37.8150 TC 30 9 191
1969029S26042 1969 8 SI MM EVE 1969-01-30 18:00:00 TS -26.7000 37.7000 reunion main 350 343 _____O______O_ -1 -26.7000 37.7000 99 9.90000 -26.7000 37.7000 TC 30 6 214
1969029S26042 1969 8 SI MM EVE 1969-01-30 21:00:00 TS -26.7676 37.4647 main 343 315 _____P______P_ -1 -26.7676 37.4647 99 -26.7676 37.4647 TC 30 4 270
1969029S26042 1969 8 SI MM EVE 1969-01-31 00:00:00 TS -26.7000 37.2000 reunion main 315 302 _____O______O_ -1 -26.7000 37.2000 99 9.90000 -26.7000 37.2000 TC 30 4 277
1969029S26042 1969 8 SI MM EVE 1969-01-31 03:00:00 TS -26.7223 37.0189 main 302 289 _____P______P_ -1 -26.7224 36.9926 99 -26.7221 37.0453 TC 30 4 270
1969029S26042 1969 8 SI MM EVE 1969-01-31 06:00:00 TS -26.7000 36.8000 reunion main 289 258 _____O______O_ -1 -26.7000 36.8000 2 9.90000 -26.7000 36.8000 TC 30 6 285
1969029S26042 1969 8 SI MM EVE 1969-01-31 09:00:00 TS -26.5730 36.3833 main 258 224 _____P______P_ -1 -26.5725 36.5849 2 -26.5735 36.1818 TC 30 7 294
1969029S26042 1969 8 SI MM EVE 1969-01-31 12:00:00 TS -26.4000 36.0500 reunion main 224 210 _____O______O_ -1 -26.4000 36.4000 99 9.90000 -26.4000 35.7000 TC 30 4 319
1969029S26042 1969 8 SI MM EVE 1969-01-31 15:00:00 TS -26.2500 36.0690 main 205 200 _____P______P_ -1 -26.2500 36.2700 99 -26.2500 35.8680 TC 30 3 24
1969029S26042 1969 8 SI MM EVE 1969-01-31 18:00:00 TS -26.1000 36.2000 reunion main 200 191 _____O______O_ -1 -26.1000 36.2000 99 9.90000 -26.1000 36.2000 TC 30 3 24
1969029S26042 1969 8 SI MM EVE 1969-01-31 21:00:00 TS -25.9650 36.2112 main 191 173 _____P______P_ -1 -25.9650 36.1851 99 -25.9649 36.2374 TC 30 3 0
1969029S26042 1969 8 SI MM EVE 1969-02-01 00:00:00 TS -25.8000 36.2000 reunion main 173 157 _____O______O_ -1 -25.8000 36.2000 99 9.90000 -25.8000 36.2000 TC 30 4 0
1969029S26042 1969 8 SI MM EVE 1969-02-01 03:00:00 TS -25.5725 36.2302 main 157 135 _____P______P_ -1 -25.5725 36.2302 99 -25.5725 36.2302 TC 30 5 2
1969029S26042 1969 8 SI MM EVE 1969-02-01 06:00:00 TS -25.3000 36.2000 reunion main 135 110 _____O______O_ -1 -25.3000 36.2000 2 9.90000 -25.3000 36.2000 TC 30 6 343
1969029S26042 1969 8 SI MM EVE 1969-02-01 09:00:00 TS -25.0150 36.0450 main 101 67 _____P______P_ -1 -25.0150 36.0450 2 -25.0150 36.0450 TC 30 7 329
1969029S26042 1969 8 SI MM EVE 1969-02-01 12:00:00 TS -24.7000 35.8000 reunion main 67 23 _____O______O_ -1 -24.7000 35.8000 99 9.90000 -24.7000 35.8000 TC 30 8 324
1969029S26042 1969 8 SI MM EVE 1969-02-01 15:00:00 TS -24.3575 35.5150 main 23 0 _____P______P_ -1 -24.3575 35.5150 99 -24.3575 35.5150 TC 30 9 322
1969029S26042 1969 8 SI MM EVE 1969-02-01 18:00:00 TS -24.0000 35.2000 reunion main 0 0 _____O______O_ -1 -24.0000 35.2000 99 9.90000 -24.0000 35.2000 TC 30 9 326
1969029S26042 1969 8 SI MM EVE 1969-02-01 21:00:00 TS -23.6194 34.9602 main 0 0 _____P______P_ -1 -23.6194 34.9602 99 -23.6194 34.9602 TC 27 9 322
1969029S26042 1969 8 SI MM EVE 1969-02-02 00:00:00 TS -23.3000 34.6000 reunion main 0 0 _____O______O_ -1 -23.3000 34.6000 99 9.90000 -23.3000 34.6000 TC 25 10 299
1969029S26042 1969 8 SI MM EVE 1969-02-02 03:00:00 TS -23.1112 33.9798 main 0 0 _____P______P_ -1 -23.1112 33.9798 99 -23.1112 33.9798 TC 22 13 283
1969029S26042 1969 8 SI MM EVE 1969-02-02 06:00:00 TS -23.0000 33.2000 reunion main 0 _____O______O_ -1 -23.0000 33.2000 6 9.90000 -23.0000 33.2000 TC 20 15 279

About IBTrACS Database

This database is a web-friendly format of International Best Track Archive for Climate Stewardship (IBTrACS), a global best track data archive curated by NOAA dating back to 1842.

Updated: 2021-12-08